sensor_id;sensor_type;location;lat;lon;timestamp;pressure;altitude;pressure_sealevel;temperature;humidity
35435;BME280;21556;55.782;37.528;2023-02-11T00:02:11;99666.00;;;-0.14;100.00
35435;BME280;21556;55.782;37.528;2023-02-11T00:04:36;99660.47;;;-0.50;100.00
35435;BME280;21556;55.782;37.528;2023-02-11T00:07:02;99670.53;;;-0.25;100.00
35435;BME280;21556;55.782;37.528;2023-02-11T00:09:28;99661.81;;;-0.12;100.00
35435;BME280;21556;55.782;37.528;2023-02-11T00:11:54;99658.53;;;-0.10;100.00
35435;BME280;21556;55.782;37.528;2023-02-11T00:14:20;99664.31;;;-0.14;100.00
35435;BME280;21556;55.782;37.528;2023-02-11T00:16:45;99665.03;;;-0.74;100.00
35435;BME280;21556;55.782;37.528;2023-02-11T00:19:11;99654.94;;;-0.41;100.00
35435;BME280;21556;55.782;37.528;2023-02-11T00:21:37;99662.31;;;-0.47;100.00
35435;BME280;21556;55.782;37.528;2023-02-11T00:24:03;99662.94;;;-0.37;100.00
35435;BME280;21556;55.782;37.528;2023-02-11T00:26:32;99660.28;;;-0.38;100.00
35435;BME280;21556;55.782;37.528;2023-02-11T00:28:59;99662.88;;;-0.38;100.00
35435;BME280;21556;55.782;37.528;2023-02-11T00:31:25;99656.72;;;-0.40;100.00
35435;BME280;21556;55.782;37.528;2023-02-11T00:33:54;99666.75;;;-0.45;100.00
35435;BME280;21556;55.782;37.528;2023-02-11T00:36:25;99665.97;;;-0.44;100.00
35435;BME280;21556;55.782;37.528;2023-02-11T00:38:52;99666.56;;;-0.48;100.00
35435;BME280;21556;55.782;37.528;2023-02-11T00:41:20;99662.28;;;-0.62;100.00
35435;BME280;21556;55.782;37.528;2023-02-11T00:43:46;99656.41;;;-0.75;100.00
35435;BME280;21556;55.782;37.528;2023-02-11T00:46:13;99669.56;;;-0.70;100.00
35435;BME280;21556;55.782;37.528;2023-02-11T00:48:39;99670.84;;;-0.49;100.00
35435;BME280;21556;55.782;37.528;2023-02-11T00:51:05;99666.38;;;-0.51;100.00
35435;BME280;21556;55.782;37.528;2023-02-11T00:53:32;99684.31;;;-0.67;100.00
35435;BME280;21556;55.782;37.528;2023-02-11T00:55:58;99683.75;;;-0.77;100.00
35435;BME280;21556;55.782;37.528;2023-02-11T00:58:26;99676.78;;;-0.64;100.00
35435;BME280;21556;55.782;37.528;2023-02-11T01:00:54;99685.31;;;-0.65;100.00
35435;BME280;21556;55.782;37.528;2023-02-11T01:03:19;99678.72;;;-0.75;100.00
35435;BME280;21556;55.782;37.528;2023-02-11T01:05:48;99677.81;;;-0.76;100.00
35435;BME280;21556;55.782;37.528;2023-02-11T01:08:14;99676.59;;;-0.67;100.00
35435;BME280;21556;55.782;37.528;2023-02-11T01:10:39;99688.56;;;-0.83;100.00
35435;BME280;21556;55.782;37.528;2023-02-11T01:13:05;99687.56;;;-0.85;100.00
35435;BME280;21556;55.782;37.528;2023-02-11T01:15:32;99691.75;;;-1.00;100.00
35435;BME280;21556;55.782;37.528;2023-02-11T01:17:58;99684.09;;;-0.85;100.00
35435;BME280;21556;55.782;37.528;2023-02-11T01:20:25;99696.88;;;-0.87;100.00
35435;BME280;21556;55.782;37.528;2023-02-11T01:22:52;99694.00;;;-0.91;100.00
35435;BME280;21556;55.782;37.528;2023-02-11T01:25:18;99709.16;;;-0.83;100.00
35435;BME280;21556;55.782;37.528;2023-02-11T01:27:44;99709.19;;;-0.68;100.00
35435;BME280;21556;55.782;37.528;2023-02-11T01:30:12;99697.81;;;-0.71;100.00
35435;BME280;21556;55.782;37.528;2023-02-11T01:32:39;99711.84;;;-0.66;100.00
35435;BME280;21556;55.782;37.528;2023-02-11T01:35:05;99703.66;;;-0.74;100.00
35435;BME280;21556;55.782;37.528;2023-02-11T01:37:32;99711.13;;;-0.79;100.00
35435;BME280;21556;55.782;37.528;2023-02-11T01:40:00;99714.09;;;-0.73;100.00
35435;BME280;21556;55.782;37.528;2023-02-11T01:42:27;99717.66;;;-0.84;100.00
35435;BME280;21556;55.782;37.528;2023-02-11T01:44:54;99706.66;;;-0.81;100.00
35435;BME280;21556;55.782;37.528;2023-02-11T01:47:20;99711.25;;;-0.90;100.00
35435;BME280;21556;55.782;37.528;2023-02-11T01:49:54;99705.38;;;-0.88;100.00
35435;BME280;21556;55.782;37.528;2023-02-11T01:52:28;99704.56;;;-0.74;100.00
35435;BME280;21556;55.782;37.528;2023-02-11T01:54:58;99698.13;;;-0.80;100.00
35435;BME280;21556;55.782;37.528;2023-02-11T01:57:47;99712.44;;;-0.85;100.00
35435;BME280;21556;55.782;37.528;2023-02-11T02:05:29;99709.78;;;-1.00;100.00
35435;BME280;21556;55.782;37.528;2023-02-11T02:08:50;99710.84;;;-0.83;100.00
35435;BME280;21556;55.782;37.528;2023-02-11T02:10:57;99704.09;;;-0.81;100.00
35435;BME280;21556;55.782;37.528;2023-02-11T02:13:27;99701.63;;;-0.80;100.00
35435;BME280;21556;55.782;37.528;2023-02-11T02:16:15;99701.19;;;-0.73;100.00
35435;BME280;21556;55.782;37.528;2023-02-11T02:22:50;99706.28;;;-0.59;100.00
35435;BME280;21556;55.782;37.528;2023-02-11T02:28:48;99704.28;;;-0.50;100.00
35435;BME280;21556;55.782;37.528;2023-02-11T02:30:59;99704.44;;;-0.90;100.00
35435;BME280;21556;55.782;37.528;2023-02-11T02:33:46;99715.00;;;-0.57;100.00
35435;BME280;21556;55.782;37.528;2023-02-11T02:41:23;99717.22;;;-0.63;100.00
35435;BME280;21556;55.782;37.528;2023-02-11T02:43:51;99711.13;;;-0.79;100.00
35435;BME280;21556;55.782;37.528;2023-02-11T02:46:23;99704.72;;;-0.42;100.00
35435;BME280;21556;55.782;37.528;2023-02-11T02:48:51;99713.81;;;-0.62;100.00
35435;BME280;21556;55.782;37.528;2023-02-11T02:57:37;99702.56;;;-0.64;100.00
35435;BME280;21556;55.782;37.528;2023-02-11T03:00:36;99707.78;;;-0.63;100.00
35435;BME280;21556;55.782;37.528;2023-02-11T03:06:00;99709.00;;;-0.71;100.00
35435;BME280;21556;55.782;37.528;2023-02-11T03:08:53;99699.50;;;-0.72;100.00
35435;BME280;21556;55.782;37.528;2023-02-11T03:11:22;99699.16;;;-0.91;100.00
35435;BME280;21556;55.782;37.528;2023-02-11T03:13:53;99708.69;;;-0.90;100.00
35435;BME280;21556;55.782;37.528;2023-02-11T03:16:25;99706.66;;;-0.81;100.00
35435;BME280;21556;55.782;37.528;2023-02-11T03:18:56;99710.94;;;-0.82;100.00
35435;BME280;21556;55.782;37.528;2023-02-11T03:21:24;99720.16;;;-0.85;100.00
35435;BME280;21556;55.782;37.528;2023-02-11T03:23:54;99699.81;;;-0.81;100.00
35435;BME280;21556;55.782;37.528;2023-02-11T03:26:39;99705.53;;;-1.00;100.00
35435;BME280;21556;55.782;37.528;2023-02-11T03:32:04;99700.03;;;-0.91;100.00
35435;BME280;21556;55.782;37.528;2023-02-11T03:34:39;99693.47;;;-1.01;100.00
35435;BME280;21556;55.782;37.528;2023-02-11T03:37:12;99702.91;;;-1.14;100.00
35435;BME280;21556;55.782;37.528;2023-02-11T03:39:44;99693.13;;;-0.92;100.00
35435;BME280;21556;55.782;37.528;2023-02-11T03:42:13;99693.06;;;-1.07;100.00
35435;BME280;21556;55.782;37.528;2023-02-11T03:44:46;99693.25;;;-1.04;100.00
35435;BME280;21556;55.782;37.528;2023-02-11T03:47:16;99684.94;;;-1.00;100.00
35435;BME280;21556;55.782;37.528;2023-02-11T03:49:44;99690.97;;;-1.40;100.00
35435;BME280;21556;55.782;37.528;2023-02-11T03:52:14;99693.75;;;-1.09;100.00
35435;BME280;21556;55.782;37.528;2023-02-11T03:54:45;99685.41;;;-0.92;100.00
35435;BME280;21556;55.782;37.528;2023-02-11T03:57:13;99679.91;;;-1.11;100.00
35435;BME280;21556;55.782;37.528;2023-02-11T03:59:56;99685.88;;;-1.12;100.00
35435;BME280;21556;55.782;37.528;2023-02-11T04:02:25;99685.47;;;-1.05;100.00
35435;BME280;21556;55.782;37.528;2023-02-11T04:04:51;99680.25;;;-1.33;100.00
35435;BME280;21556;55.782;37.528;2023-02-11T04:07:18;99676.16;;;-1.16;100.00
35435;BME280;21556;55.782;37.528;2023-02-11T04:09:43;99688.44;;;-1.12;100.00
35435;BME280;21556;55.782;37.528;2023-02-11T04:12:09;99680.81;;;-1.11;100.00
35435;BME280;21556;55.782;37.528;2023-02-11T04:14:35;99683.94;;;-1.43;100.00
35435;BME280;21556;55.782;37.528;2023-02-11T04:17:01;99682.09;;;-1.17;100.00
35435;BME280;21556;55.782;37.528;2023-02-11T04:19:27;99687.97;;;-1.33;100.00
35435;BME280;21556;55.782;37.528;2023-02-11T04:21:53;99672.75;;;-1.57;100.00
35435;BME280;21556;55.782;37.528;2023-02-11T04:24:19;99674.84;;;-1.51;100.00
35435;BME280;21556;55.782;37.528;2023-02-11T04:26:45;99676.41;;;-1.40;100.00
35435;BME280;21556;55.782;37.528;2023-02-11T04:29:13;99688.06;;;-1.32;100.00
35435;BME280;21556;55.782;37.528;2023-02-11T04:31:39;99686.09;;;-1.49;100.00
35435;BME280;21556;55.782;37.528;2023-02-11T04:34:05;99690.75;;;-1.57;100.00
35435;BME280;21556;55.782;37.528;2023-02-11T04:36:31;99684.03;;;-1.41;100.00
35435;BME280;21556;55.782;37.528;2023-02-11T04:38:57;99680.50;;;-1.70;100.00
35435;BME280;21556;55.782;37.528;2023-02-11T04:41:22;99684.53;;;-1.47;100.00
35435;BME280;21556;55.782;37.528;2023-02-11T04:43:48;99679.28;;;-1.49;100.00
35435;BME280;21556;55.782;37.528;2023-02-11T04:46:14;99683.13;;;-1.42;100.00
35435;BME280;21556;55.782;37.528;2023-02-11T04:48:40;99682.16;;;-1.44;100.00
35435;BME280;21556;55.782;37.528;2023-02-11T04:51:06;99682.28;;;-1.69;100.00
35435;BME280;21556;55.782;37.528;2023-02-11T04:53:33;99689.38;;;-1.65;100.00
35435;BME280;21556;55.782;37.528;2023-02-11T04:55:59;99685.72;;;-1.55;100.00
35435;BME280;21556;55.782;37.528;2023-02-11T04:58:25;99688.69;;;-1.62;100.00
35435;BME280;21556;55.782;37.528;2023-02-11T05:00:51;99688.28;;;-1.68;100.00
35435;BME280;21556;55.782;37.528;2023-02-11T05:03:17;99689.88;;;-1.57;100.00
35435;BME280;21556;55.782;37.528;2023-02-11T05:05:42;99690.00;;;-1.56;100.00
35435;BME280;21556;55.782;37.528;2023-02-11T05:08:09;99688.88;;;-1.46;100.00
35435;BME280;21556;55.782;37.528;2023-02-11T05:10:35;99684.16;;;-1.66;100.00
35435;BME280;21556;55.782;37.528;2023-02-11T05:13:01;99686.81;;;-1.52;100.00
35435;BME280;21556;55.782;37.528;2023-02-11T05:15:28;99681.38;;;-1.70;100.00
35435;BME280;21556;55.782;37.528;2023-02-11T05:17:54;99683.75;;;-1.73;100.00
35435;BME280;21556;55.782;37.528;2023-02-11T05:20:19;99693.34;;;-1.70;100.00
35435;BME280;21556;55.782;37.528;2023-02-11T05:22:45;99693.66;;;-1.52;100.00
35435;BME280;21556;55.782;37.528;2023-02-11T05:25:11;99685.72;;;-1.55;100.00
35435;BME280;21556;55.782;37.528;2023-02-11T05:27:38;99693.53;;;-1.54;100.00
35435;BME280;21556;55.782;37.528;2023-02-11T05:30:05;99686.63;;;-1.55;100.00
35435;BME280;21556;55.782;37.528;2023-02-11T05:32:31;99683.34;;;-1.52;100.00
35435;BME280;21556;55.782;37.528;2023-02-11T05:34:57;99683.94;;;-1.43;100.00
35435;BME280;21556;55.782;37.528;2023-02-11T05:37:25;99683.03;;;-1.43;100.00
35435;BME280;21556;55.782;37.528;2023-02-11T05:39:58;99684.28;;;-1.24;100.00
35435;BME280;21556;55.782;37.528;2023-02-11T05:42:24;99680.28;;;-1.47;100.00
35435;BME280;21556;55.782;37.528;2023-02-11T05:44:50;99686.41;;;-1.58;100.00
35435;BME280;21556;55.782;37.528;2023-02-11T05:47:17;99681.34;;;-1.43;100.00
35435;BME280;21556;55.782;37.528;2023-02-11T05:49:45;99684.00;;;-1.28;100.00
35435;BME280;21556;55.782;37.528;2023-02-11T05:52:11;99676.06;;;-1.18;100.00
35435;BME280;21556;55.782;37.528;2023-02-11T05:54:37;99680.75;;;-1.39;100.00
35435;BME280;21556;55.782;37.528;2023-02-11T05:57:03;99679.25;;;-1.22;100.00
35435;BME280;21556;55.782;37.528;2023-02-11T05:59:30;99671.94;;;-1.42;100.00
35435;BME280;21556;55.782;37.528;2023-02-11T06:01:56;99678.97;;;-1.40;100.00
35435;BME280;21556;55.782;37.528;2023-02-11T06:04:22;99671.94;;;-1.29;100.00
35435;BME280;21556;55.782;37.528;2023-02-11T06:06:48;99680.94;;;-1.23;100.00
35435;BME280;21556;55.782;37.528;2023-02-11T06:09:14;99681.19;;;-1.05;100.00
35435;BME280;21556;55.782;37.528;2023-02-11T06:11:39;99680.06;;;-0.95;100.00
35435;BME280;21556;55.782;37.528;2023-02-11T06:14:05;99679.72;;;-1.14;100.00
35435;BME280;21556;55.782;37.528;2023-02-11T06:16:31;99691.66;;;-1.43;100.00
35435;BME280;21556;55.782;37.528;2023-02-11T06:18:57;99678.66;;;-1.31;100.00
35435;BME280;21556;55.782;37.528;2023-02-11T06:21:23;99684.19;;;-1.25;100.00
35435;BME280;21556;55.782;37.528;2023-02-11T06:23:50;99689.75;;;-1.32;100.00
35435;BME280;21556;55.782;37.528;2023-02-11T06:26:19;99679.97;;;-1.38;100.00
35435;BME280;21556;55.782;37.528;2023-02-11T06:28:45;99681.56;;;-1.40;100.00
35435;BME280;21556;55.782;37.528;2023-02-11T06:31:12;99686.00;;;-1.37;100.00
35435;BME280;21556;55.782;37.528;2023-02-11T06:33:38;99680.25;;;-1.60;100.00
35435;BME280;21556;55.782;37.528;2023-02-11T06:36:18;99677.28;;;-1.39;100.00
35435;BME280;21556;55.782;37.528;2023-02-11T06:38:51;99680.75;;;-1.26;100.00
35435;BME280;21556;55.782;37.528;2023-02-11T06:41:18;99679.06;;;-1.38;100.00
35435;BME280;21556;55.782;37.528;2023-02-11T06:43:47;99670.03;;;-1.32;100.00
35435;BME280;21556;55.782;37.528;2023-02-11T06:46:14;99671.75;;;-1.46;100.00
35435;BME280;21556;55.782;37.528;2023-02-11T06:48:41;99670.13;;;-1.17;100.00
35435;BME280;21556;55.782;37.528;2023-02-11T06:51:09;99669.75;;;-0.95;100.00
35435;BME280;21556;55.782;37.528;2023-02-11T06:53:41;99665.44;;;-1.09;100.00
35435;BME280;21556;55.782;37.528;2023-02-11T06:56:14;99667.78;;;-0.99;100.00
35435;BME280;21556;55.782;37.528;2023-02-11T06:58:45;99674.13;;;-0.94;100.00
35435;BME280;21556;55.782;37.528;2023-02-11T07:01:21;99682.78;;;-1.20;100.00
35435;BME280;21556;55.782;37.528;2023-02-11T07:03:48;99686.84;;;-1.24;100.00
35435;BME280;21556;55.782;37.528;2023-02-11T07:06:17;99689.16;;;-0.87;100.00
35435;BME280;21556;55.782;37.528;2023-02-11T07:08:46;99687.16;;;-0.91;100.00
35435;BME280;21556;55.782;37.528;2023-02-11T07:11:13;99682.03;;;-1.19;100.00
35435;BME280;21556;55.782;37.528;2023-02-11T07:13:39;99678.28;;;-0.96;100.00
35435;BME280;21556;55.782;37.528;2023-02-11T07:16:10;99660.66;;;-0.47;100.00
35435;BME280;21556;55.782;37.528;2023-02-11T07:18:37;99663.31;;;-0.31;100.00
35435;BME280;21556;55.782;37.528;2023-02-11T07:21:09;99658.31;;;-0.57;100.00
35435;BME280;21556;55.782;37.528;2023-02-11T07:23:36;99660.31;;;-0.66;100.00
35435;BME280;21556;55.782;37.528;2023-02-11T07:26:07;99663.03;;;-0.50;100.00
35435;BME280;21556;55.782;37.528;2023-02-11T07:28:35;99654.94;;;-0.84;100.00
35435;BME280;21556;55.782;37.528;2023-02-11T07:31:07;99660.28;;;-0.38;100.00
35435;BME280;21556;55.782;37.528;2023-02-11T07:33:36;99659.41;;;-0.39;100.00
35435;BME280;21556;55.782;37.528;2023-02-11T07:36:06;99655.50;;;-0.47;100.00
35435;BME280;21556;55.782;37.528;2023-02-11T07:38:34;99648.47;;;-0.35;100.00
35435;BME280;21556;55.782;37.528;2023-02-11T07:41:09;99648.09;;;-0.56;100.00
35435;BME280;21556;55.782;37.528;2023-02-11T07:43:36;99649.34;;;-0.49;100.00
35435;BME280;21556;55.782;37.528;2023-02-11T07:46:08;99643.63;;;-0.58;100.00
35435;BME280;21556;55.782;37.528;2023-02-11T07:48:36;99648.44;;;-0.64;100.00
35435;BME280;21556;55.782;37.528;2023-02-11T07:51:06;99645.53;;;-0.41;100.00
35435;BME280;21556;55.782;37.528;2023-02-11T07:53:33;99634.38;;;-0.55;100.00
35435;BME280;21556;55.782;37.528;2023-02-11T07:55:59;99654.81;;;-0.73;100.00
35435;BME280;21556;55.782;37.528;2023-02-11T07:58:25;99639.38;;;-0.73;100.00
35435;BME280;21556;55.782;37.528;2023-02-11T08:00:53;99638.16;;;-0.92;100.00
35435;BME280;21556;55.782;37.528;2023-02-11T08:03:19;99646.84;;;-1.05;100.00
35435;BME280;21556;55.782;37.528;2023-02-11T08:05:47;99656.84;;;-0.82;100.00
35435;BME280;21556;55.782;37.528;2023-02-11T08:08:15;99636.88;;;-0.71;100.00
35435;BME280;21556;55.782;37.528;2023-02-11T08:10:42;99647.34;;;-0.83;100.00
35435;BME280;21556;55.782;37.528;2023-02-11T08:13:08;99642.00;;;-0.86;100.00
35435;BME280;21556;55.782;37.528;2023-02-11T08:15:34;99637.72;;;-0.85;100.00
35435;BME280;21556;55.782;37.528;2023-02-11T08:18:00;99635.13;;;-1.00;100.00
35435;BME280;21556;55.782;37.528;2023-02-11T08:20:26;99622.69;;;-0.92;100.00
35435;BME280;21556;55.782;37.528;2023-02-11T08:22:52;99625.91;;;-0.82;100.00
35435;BME280;21556;55.782;37.528;2023-02-11T08:25:17;99619.72;;;-0.70;100.00
35435;BME280;21556;55.782;37.528;2023-02-11T08:27:43;99618.19;;;-0.82;100.00
35435;BME280;21556;55.782;37.528;2023-02-11T08:30:10;99611.81;;;-0.74;100.00
35435;BME280;21556;55.782;37.528;2023-02-11T08:32:36;99606.97;;;-0.97;100.00
35435;BME280;21556;55.782;37.528;2023-02-11T08:35:04;99617.94;;;-0.86;100.00
35435;BME280;21556;55.782;37.528;2023-02-11T08:37:32;99594.00;;;-0.84;100.00
35435;BME280;21556;55.782;37.528;2023-02-11T08:39:58;99611.34;;;-0.81;100.00
35435;BME280;21556;55.782;37.528;2023-02-11T08:42:24;99594.63;;;-0.88;100.00
35435;BME280;21556;55.782;37.528;2023-02-11T08:44:50;99591.88;;;-0.91;100.00
35435;BME280;21556;55.782;37.528;2023-02-11T08:47:16;99607.69;;;-0.85;100.00
35435;BME280;21556;55.782;37.528;2023-02-11T08:49:42;99596.88;;;-0.94;100.00
35435;BME280;21556;55.782;37.528;2023-02-11T08:52:07;99587.09;;;-0.85;100.00
35435;BME280;21556;55.782;37.528;2023-02-11T08:54:33;99578.38;;;-1.02;100.00
35435;BME280;21556;55.782;37.528;2023-02-11T08:56:59;99561.84;;;-1.05;100.00
35435;BME280;21556;55.782;37.528;2023-02-11T08:59:27;99576.53;;;-0.75;100.00
35435;BME280;21556;55.782;37.528;2023-02-11T09:01:55;99566.88;;;-0.64;100.00
35435;BME280;21556;55.782;37.528;2023-02-11T09:04:21;99546.97;;;-0.66;100.00
35435;BME280;21556;55.782;37.528;2023-02-11T09:06:47;99531.31;;;-0.55;100.00
35435;BME280;21556;55.782;37.528;2023-02-11T09:09:14;99526.53;;;-0.63;100.00
35435;BME280;21556;55.782;37.528;2023-02-11T09:11:42;99525.38;;;-0.68;100.00
35435;BME280;21556;55.782;37.528;2023-02-11T09:14:16;99513.91;;;-0.74;100.00
35435;BME280;21556;55.782;37.528;2023-02-11T09:16:43;99520.13;;;-0.85;100.00
35435;BME280;21556;55.782;37.528;2023-02-11T09:19:09;99503.59;;;-1.03;100.00
35435;BME280;21556;55.782;37.528;2023-02-11T09:21:36;99498.00;;;-0.52;100.00
35435;BME280;21556;55.782;37.528;2023-02-11T09:24:02;99503.78;;;-1.00;100.00
35435;BME280;21556;55.782;37.528;2023-02-11T09:26:32;99487.19;;;-0.90;100.00
35435;BME280;21556;55.782;37.528;2023-02-11T09:28:59;99484.34;;;-0.65;100.00
35435;BME280;21556;55.782;37.528;2023-02-11T09:31:27;99475.19;;;-0.60;100.00
35435;BME280;21556;55.782;37.528;2023-02-11T09:33:56;99464.31;;;-0.55;100.00
35435;BME280;21556;55.782;37.528;2023-02-11T09:36:26;99467.00;;;-0.68;100.00
35435;BME280;21556;55.782;37.528;2023-02-11T09:38:54;99469.47;;;-0.69;100.00
35435;BME280;21556;55.782;37.528;2023-02-11T09:43:57;99455.56;;;-0.88;100.00
35435;BME280;21556;55.782;37.528;2023-02-11T09:46:25;99471.09;;;-1.01;100.00
35435;BME280;21556;55.782;37.528;2023-02-11T09:48:55;99457.88;;;-0.92;100.00
35435;BME280;21556;55.782;37.528;2023-02-11T09:51:57;99453.25;;;-0.83;100.00
35435;BME280;21556;55.782;37.528;2023-02-11T09:54:34;99455.66;;;-0.86;100.00
35435;BME280;21556;55.782;37.528;2023-02-11T09:57:02;99458.25;;;-1.01;100.00
35435;BME280;21556;55.782;37.528;2023-02-11T09:59:28;99440.72;;;-0.92;100.00
35435;BME280;21556;55.782;37.528;2023-02-11T10:01:59;99441.00;;;-1.02;100.00
35435;BME280;21556;55.782;37.528;2023-02-11T10:04:31;99449.69;;;-0.85;100.00
35435;BME280;21556;55.782;37.528;2023-02-11T10:07:31;99443.66;;;-0.86;100.00
35435;BME280;21556;55.782;37.528;2023-02-11T10:18:23;99429.28;;;-0.82;100.00
35435;BME280;21556;55.782;37.528;2023-02-11T10:20:59;99417.72;;;-0.89;100.00
35435;BME280;21556;55.782;37.528;2023-02-11T10:23:35;99414.28;;;-0.58;100.00
35435;BME280;21556;55.782;37.528;2023-02-11T10:26:15;99410.13;;;-0.56;100.00
35435;BME280;21556;55.782;37.528;2023-02-11T10:28:45;99405.69;;;-0.59;100.00
35435;BME280;21556;55.782;37.528;2023-02-11T10:33:55;99390.63;;;-0.82;100.00
35435;BME280;21556;55.782;37.528;2023-02-11T10:36:36;99381.56;;;-0.76;100.00
35435;BME280;21556;55.782;37.528;2023-02-11T10:39:13;99376.25;;;-0.79;100.00
35435;BME280;21556;55.782;37.528;2023-02-11T10:41:44;99371.44;;;-0.73;100.00
35435;BME280;21556;55.782;37.528;2023-02-11T10:44:31;99357.03;;;-0.69;100.00
35435;BME280;21556;55.782;37.528;2023-02-11T10:47:02;99374.34;;;-0.66;100.00
35435;BME280;21556;55.782;37.528;2023-02-11T10:54:37;99340.63;;;-0.55;100.00
35435;BME280;21556;55.782;37.528;2023-02-11T10:57:03;99332.09;;;-0.54;100.00
35435;BME280;21556;55.782;37.528;2023-02-11T10:59:33;99352.66;;;-0.70;100.00
35435;BME280;21556;55.782;37.528;2023-02-11T11:02:29;99330.88;;;-0.60;100.00
35435;BME280;21556;55.782;37.528;2023-02-11T11:05:05;99319.53;;;-0.47;100.00
35435;BME280;21556;55.782;37.528;2023-02-11T11:07:53;99328.75;;;-0.36;100.00
35435;BME280;21556;55.782;37.528;2023-02-11T11:10:43;99329.47;;;-0.39;100.00
35435;BME280;21556;55.782;37.528;2023-02-11T11:13:31;99322.16;;;-0.62;100.00
35435;BME280;21556;55.782;37.528;2023-02-11T11:18:45;99314.84;;;-0.55;100.00
35435;BME280;21556;55.782;37.528;2023-02-11T11:21:32;99295.75;;;-0.75;100.00
35435;BME280;21556;55.782;37.528;2023-02-11T11:24:01;99290.78;;;-0.55;100.00
35435;BME280;21556;55.782;37.528;2023-02-11T11:26:43;99281.59;;;-0.66;100.00
35435;BME280;21556;55.782;37.528;2023-02-11T11:29:16;99273.31;;;-0.28;100.00
35435;BME280;21556;55.782;37.528;2023-02-11T11:31:58;99279.09;;;-0.49;100.00
35435;BME280;21556;55.782;37.528;2023-02-11T11:34:35;99251.75;;;-0.46;100.00
35435;BME280;21556;55.782;37.528;2023-02-11T11:37:34;99256.50;;;-0.54;100.00
35435;BME280;21556;55.782;37.528;2023-02-11T11:40:07;99251.16;;;-0.41;100.00
35435;BME280;21556;55.782;37.528;2023-02-11T11:42:39;99246.00;;;-0.25;100.00
35435;BME280;21556;55.782;37.528;2023-02-11T11:45:25;99239.91;;;-0.43;100.00
35435;BME280;21556;55.782;37.528;2023-02-11T11:48:21;99232.34;;;-0.40;100.00
35435;BME280;21556;55.782;37.528;2023-02-11T11:50:53;99237.00;;;-0.33;100.00
35435;BME280;21556;55.782;37.528;2023-02-11T11:53:42;99232.41;;;-0.38;100.00
35435;BME280;21556;55.782;37.528;2023-02-11T11:56:16;99221.09;;;-0.40;100.00
35435;BME280;21556;55.782;37.528;2023-02-11T11:58:43;99232.47;;;-0.69;100.00
35435;BME280;21556;55.782;37.528;2023-02-11T12:10:10;99209.69;;;-0.62;100.00
35435;BME280;21556;55.782;37.528;2023-02-11T12:13:01;99200.38;;;-0.43;100.00
35435;BME280;21556;55.782;37.528;2023-02-11T12:15:39;99191.66;;;-0.45;100.00
35435;BME280;21556;55.782;37.528;2023-02-11T12:26:39;99178.03;;;-0.43;100.00
35435;BME280;21556;55.782;37.528;2023-02-11T12:32:09;99188.41;;;-0.41;100.00
35435;BME280;21556;55.782;37.528;2023-02-11T12:43:30;99158.72;;;-0.67;100.00
35435;BME280;21556;55.782;37.528;2023-02-11T12:46:33;99148.00;;;-0.59;100.00
35435;BME280;21556;55.782;37.528;2023-02-11T12:51:55;99128.31;;;-0.40;100.00
35435;BME280;21556;55.782;37.528;2023-02-11T12:54:32;99119.06;;;-0.37;100.00
35435;BME280;21556;55.782;37.528;2023-02-11T12:57:06;99119.38;;;-0.65;100.00
35435;BME280;21556;55.782;37.528;2023-02-11T12:59:44;99119.66;;;-0.42;100.00
35435;BME280;21556;55.782;37.528;2023-02-11T13:05:22;99089.88;;;-0.54;100.00
35435;BME280;21556;55.782;37.528;2023-02-11T13:07:52;99090.97;;;-0.49;100.00
35435;BME280;21556;55.782;37.528;2023-02-11T13:10:39;99079.25;;;-0.60;100.00
35435;BME280;21556;55.782;37.528;2023-02-11T13:13:24;99070.38;;;-0.49;100.00
35435;BME280;21556;55.782;37.528;2023-02-11T13:16:02;99067.38;;;-0.74;100.00
35435;BME280;21556;55.782;37.528;2023-02-11T13:35:39;99023.88;;;-0.68;100.00
35435;BME280;21556;55.782;37.528;2023-02-11T13:38:24;99018.56;;;-1.05;100.00
35435;BME280;21556;55.782;37.528;2023-02-11T13:41:03;99003.59;;;-0.96;100.00
35435;BME280;21556;55.782;37.528;2023-02-11T13:43:37;99005.88;;;-1.35;100.00
35435;BME280;21556;55.782;37.528;2023-02-11T13:46:05;98998.50;;;-0.94;100.00
35435;BME280;21556;55.782;37.528;2023-02-11T13:48:44;99007.84;;;-0.97;100.00
35435;BME280;21556;55.782;37.528;2023-02-11T13:51:14;99015.25;;;-1.03;100.00
35435;BME280;21556;55.782;37.528;2023-02-11T13:53:49;98989.78;;;-1.14;100.00
35435;BME280;21556;55.782;37.528;2023-02-11T13:56:31;98975.31;;;-1.12;100.00
35435;BME280;21556;55.782;37.528;2023-02-11T13:58:59;98982.38;;;-1.25;100.00
35435;BME280;21556;55.782;37.528;2023-02-11T14:01:41;98965.84;;;-1.30;100.00
35435;BME280;21556;55.782;37.528;2023-02-11T14:04:23;98943.59;;;-1.11;100.00
35435;BME280;21556;55.782;37.528;2023-02-11T14:07:38;98950.78;;;-1.22;100.00
35435;BME280;21556;55.782;37.528;2023-02-11T14:13:31;98905.50;;;-1.01;100.00
35435;BME280;21556;55.782;37.528;2023-02-11T14:16:10;98904.84;;;-0.97;100.00
35435;BME280;21556;55.782;37.528;2023-02-11T14:37:39;98866.06;;;-1.17;100.00
35435;BME280;21556;55.782;37.528;2023-02-11T14:40:35;98844.28;;;-1.24;100.00
35435;BME280;21556;55.782;37.528;2023-02-11T14:43:12;98860.16;;;-1.33;100.00
35435;BME280;21556;55.782;37.528;2023-02-11T14:45:49;98822.25;;;-1.19;100.00
35435;BME280;21556;55.782;37.528;2023-02-11T14:48:18;98815.31;;;-1.20;100.00
35435;BME280;21556;55.782;37.528;2023-02-11T14:50:51;98833.09;;;-1.25;100.00
35435;BME280;21556;55.782;37.528;2023-02-11T14:53:23;98809.44;;;-1.17;100.00
35435;BME280;21556;55.782;37.528;2023-02-11T14:55:54;98809.56;;;-1.32;100.00
35435;BME280;21556;55.782;37.528;2023-02-11T14:58:23;98805.16;;;-1.17;100.00
35435;BME280;21556;55.782;37.528;2023-02-11T15:01:02;98804.78;;;-1.25;100.00
35435;BME280;21556;55.782;37.528;2023-02-11T15:08:49;98783.53;;;-1.21;100.00
35435;BME280;21556;55.782;37.528;2023-02-11T15:11:19;98785.38;;;-1.36;100.00